createdAt,value
2019-04-01T00:01:17.254Z,2.50
2019-04-01T00:03:45.694Z,2.90
2019-04-01T00:06:14.126Z,2.70
2019-04-01T00:08:42.611Z,3.87
2019-04-01T00:11:11.083Z,3.60
2019-04-01T00:13:39.535Z,3.20
2019-04-01T00:16:07.963Z,3.00
2019-04-01T00:18:36.402Z,2.80
2019-04-01T00:21:04.849Z,2.40
2019-04-01T00:23:33.317Z,2.47
2019-04-01T00:26:01.766Z,2.60
2019-04-01T00:28:30.210Z,2.60
2019-04-01T00:30:58.657Z,3.40
2019-04-01T00:33:27.106Z,3.67
2019-04-01T00:35:55.537Z,2.97
2019-04-01T00:38:23.986Z,3.70
2019-04-01T00:40:52.415Z,3.90
2019-04-01T00:43:28.220Z,3.30
2019-04-01T00:45:58.284Z,2.73
2019-04-01T00:48:26.734Z,2.57
2019-04-01T00:50:55.172Z,2.70
2019-04-01T00:53:23.685Z,2.50
2019-04-01T00:55:52.137Z,2.73
2019-04-01T00:58:20.651Z,3.07
2019-04-01T01:00:49.168Z,3.03
2019-04-01T01:03:17.628Z,3.00
2019-04-01T01:05:46.059Z,3.30
2019-04-01T01:08:14.534Z,3.50
2019-04-01T01:10:43.016Z,3.70
2019-04-01T01:13:11.471Z,3.63
2019-04-01T01:15:39.892Z,4.00
2019-04-01T01:18:08.343Z,3.70
2019-04-01T01:20:36.786Z,3.40
2019-04-01T01:23:05.251Z,3.37
2019-04-01T01:25:33.872Z,2.40
2019-04-01T01:28:02.618Z,2.47
2019-04-01T01:30:31.073Z,2.73
2019-04-01T01:32:59.570Z,2.47
2019-04-01T01:35:28.024Z,2.47
2019-04-01T01:37:56.465Z,2.43
2019-04-01T01:40:24.929Z,2.20
2019-04-01T01:42:53.353Z,2.27
2019-04-01T01:45:21.815Z,2.00
2019-04-01T01:47:50.252Z,2.10
2019-04-01T01:50:18.699Z,2.03
2019-04-01T01:52:47.145Z,2.50
2019-04-01T01:55:15.590Z,2.10
2019-04-01T01:57:44.016Z,2.73
2019-04-01T02:00:13.547Z,2.33
2019-04-01T02:02:42.051Z,2.47
2019-04-01T02:05:10.570Z,2.30
2019-04-01T02:07:39.016Z,2.67
2019-04-01T02:10:07.777Z,2.63
2019-04-01T02:12:36.234Z,2.33
2019-04-01T02:15:06.629Z,2.23
2019-04-01T02:17:35.057Z,2.00
2019-04-01T02:20:04.269Z,2.57
2019-04-01T02:22:32.704Z,2.50
2019-04-01T02:25:01.154Z,2.73
2019-04-01T02:27:29.587Z,2.37
2019-04-01T02:29:58.035Z,2.50
2019-04-01T02:32:26.467Z,2.40
2019-04-01T02:34:54.916Z,2.40
2019-04-01T02:37:23.361Z,2.30
2019-04-01T02:39:51.824Z,2.37
2019-04-01T02:42:20.503Z,2.97
2019-04-01T02:44:48.972Z,2.70
2019-04-01T02:47:17.474Z,2.50
2019-04-01T02:49:45.940Z,2.73
2019-04-01T02:52:14.372Z,2.60
2019-04-01T02:54:42.837Z,2.40
2019-04-01T02:57:11.338Z,2.97
2019-04-01T02:59:39.810Z,2.50
2019-04-01T03:02:08.245Z,2.77
2019-04-01T03:04:36.698Z,2.70
2019-04-01T03:07:05.121Z,2.67
2019-04-01T03:09:33.581Z,3.30
2019-04-01T03:12:02.043Z,2.50
2019-04-01T03:14:30.563Z,2.93
2019-04-01T03:16:58.995Z,2.73
2019-04-01T03:19:27.456Z,2.93
2019-04-01T03:21:55.881Z,3.00
2019-04-01T03:24:24.337Z,3.10
2019-04-01T03:26:52.856Z,3.07
2019-04-01T03:29:21.309Z,3.10
2019-04-01T03:31:49.823Z,2.90
2019-04-01T03:34:18.281Z,3.33
2019-04-01T03:36:46.739Z,2.70
2019-04-01T03:39:15.274Z,2.50
2019-04-01T03:41:43.802Z,2.93
2019-04-01T03:44:12.311Z,2.30
2019-04-01T03:46:40.779Z,2.90
2019-04-01T03:49:09.214Z,2.80
2019-04-01T03:51:37.738Z,2.93
2019-04-01T03:54:06.172Z,2.80
2019-04-01T03:56:34.628Z,2.40
2019-04-01T03:59:03.070Z,3.37
2019-04-01T04:01:31.603Z,3.70
2019-04-01T04:04:00.054Z,4.07
2019-04-01T04:06:28.573Z,3.40
2019-04-01T04:09:01.602Z,3.17
2019-04-01T04:11:27.179Z,3.20
2019-04-01T04:13:55.618Z,3.60
2019-04-01T04:16:24.070Z,3.40
2019-04-01T04:18:52.491Z,2.97
2019-04-01T04:21:23.939Z,3.30
2019-04-01T04:23:51.107Z,3.30
2019-04-01T04:26:19.570Z,3.10
2019-04-01T04:28:48.065Z,2.57
2019-04-01T04:31:16.554Z,2.77
2019-04-01T04:33:45.024Z,2.80
2019-04-01T04:36:13.510Z,2.70
2019-04-01T04:38:42.031Z,2.67
2019-04-01T04:41:10.471Z,2.73
2019-04-01T04:43:38.927Z,2.80
2019-04-01T04:46:07.368Z,3.40
2019-04-01T04:48:35.818Z,2.90
2019-04-01T04:51:04.262Z,4.27
2019-04-01T04:53:32.694Z,3.93
2019-04-01T04:56:01.144Z,4.27
2019-04-01T04:58:29.583Z,5.30
2019-04-01T05:00:58.032Z,4.67
2019-04-01T05:03:26.500Z,4.60
2019-04-01T05:05:55.008Z,4.83
2019-04-01T05:08:23.447Z,5.33
2019-04-01T05:10:52.000Z,7.33
2019-04-01T05:13:20.494Z,6.50
2019-04-01T05:15:48.929Z,6.93
2019-04-01T05:18:17.388Z,5.93
2019-04-01T05:20:47.160Z,6.00
2019-04-01T05:23:16.723Z,5.33
2019-04-01T05:25:46.818Z,6.00
2019-04-01T05:28:16.220Z,5.77
2019-04-01T05:30:46.808Z,5.93
2019-04-01T05:33:18.567Z,6.17
2019-04-01T05:35:47.002Z,7.30
2019-04-01T05:38:15.457Z,7.73
2019-04-01T05:40:43.972Z,7.27
2019-04-01T05:43:12.410Z,7.97
2019-04-01T05:45:40.860Z,6.60
2019-04-01T05:48:10.086Z,6.30
2019-04-01T05:50:38.523Z,5.80
2019-04-01T05:53:07.037Z,5.53
2019-04-01T05:55:35.479Z,6.40
2019-04-01T05:58:03.928Z,6.53
2019-04-01T06:00:34.135Z,6.17
2019-04-01T06:03:02.750Z,6.23
2019-04-01T06:05:31.264Z,5.83
2019-04-01T06:07:59.721Z,6.27
2019-04-01T06:10:28.153Z,5.50
2019-04-01T06:12:56.606Z,5.07
2019-04-01T06:15:25.118Z,5.10
2019-04-01T06:17:53.571Z,4.83
2019-04-01T06:20:21.998Z,4.70
2019-04-01T06:22:50.455Z,4.60
2019-04-01T06:25:18.897Z,4.70
2019-04-01T06:27:47.423Z,4.67
2019-04-01T06:30:15.864Z,4.70
2019-04-01T06:32:44.329Z,5.00
2019-04-01T06:35:12.794Z,3.80
2019-04-01T06:37:41.282Z,3.60
2019-04-01T06:40:10.123Z,3.50
2019-04-01T06:42:38.574Z,3.83
2019-04-01T06:45:07.794Z,3.87
2019-04-01T06:47:36.246Z,3.77
2019-04-01T06:50:05.825Z,3.17
2019-04-01T06:52:34.281Z,3.50
2019-04-01T06:55:02.729Z,2.90
2019-04-01T06:57:31.178Z,3.53
2019-04-01T06:59:59.618Z,3.27
2019-04-01T07:02:28.079Z,3.10
2019-04-01T07:04:56.501Z,3.10
2019-04-01T07:07:24.984Z,3.00
2019-04-01T07:09:53.501Z,2.30
2019-04-01T07:12:21.959Z,1.93
2019-04-01T07:14:50.563Z,1.60
2019-04-01T07:17:19.095Z,2.23
2019-04-01T07:19:47.546Z,2.10
2019-04-01T07:22:16.004Z,2.13
2019-04-01T07:24:44.451Z,2.00
2019-04-01T07:27:12.891Z,1.83
2019-04-01T07:29:41.400Z,1.73
2019-04-01T07:32:09.854Z,1.70
2019-04-01T07:34:38.279Z,1.70
2019-04-01T07:37:06.739Z,1.37
2019-04-01T07:39:35.175Z,1.50
2019-04-01T07:42:03.618Z,1.63
2019-04-01T07:44:32.074Z,1.40
2019-04-01T07:47:00.512Z,1.50
2019-04-01T07:49:29.028Z,1.60
2019-04-01T07:51:57.460Z,1.40
2019-04-01T07:54:25.917Z,1.60
2019-04-01T07:56:54.356Z,1.90
2019-04-01T07:59:22.875Z,1.60
2019-04-01T08:01:52.900Z,1.80
2019-04-01T08:04:21.505Z,1.57
2019-04-01T08:06:50.186Z,1.77
2019-04-01T08:09:18.875Z,2.03
2019-04-01T08:11:49.994Z,1.60
2019-04-01T08:14:17.484Z,1.57
2019-04-01T08:16:45.983Z,1.70
2019-04-01T08:19:14.446Z,1.50
2019-04-01T08:21:42.892Z,1.63
2019-04-01T08:24:11.410Z,2.40
2019-04-01T08:26:40.113Z,1.70
2019-04-01T08:29:08.570Z,1.40
2019-04-01T08:31:37.015Z,1.57
2019-04-01T08:34:05.535Z,1.30
2019-04-01T08:36:33.985Z,1.47
2019-04-01T08:39:02.452Z,1.30
2019-04-01T08:41:30.895Z,1.33
2019-04-01T08:44:02.983Z,1.70
2019-04-01T08:46:29.514Z,1.50
2019-04-01T08:48:57.986Z,1.37
2019-04-01T08:51:26.488Z,1.50
2019-04-01T08:53:55.993Z,1.50
2019-04-01T08:56:24.574Z,1.40
2019-04-01T08:58:53.095Z,1.80
2019-04-01T09:01:34.522Z,1.13
2019-04-01T09:03:51.869Z,1.10
2019-04-01T09:06:20.321Z,1.60
2019-04-01T09:08:49.228Z,1.70
2019-04-01T09:11:17.658Z,1.40
2019-04-01T09:13:46.177Z,1.07
2019-04-01T09:16:15.938Z,1.53
2019-04-01T09:18:44.399Z,1.07
2019-04-01T09:21:12.851Z,1.30
2019-04-01T09:23:41.366Z,1.27
2019-04-01T09:26:09.863Z,3.70
2019-04-01T09:28:38.319Z,4.63
2019-04-01T09:31:06.763Z,1.40
2019-04-01T09:33:35.219Z,1.10
2019-04-01T09:36:03.743Z,1.40
2019-04-01T09:38:32.248Z,1.30
2019-04-01T09:41:00.722Z,1.33
2019-04-01T09:43:29.196Z,1.50
2019-04-01T09:45:57.643Z,1.43
2019-04-01T09:48:26.108Z,1.20
2019-04-01T09:50:54.538Z,1.30
2019-04-01T09:53:23.012Z,1.40
2019-04-01T09:55:51.446Z,1.27
2019-04-01T09:58:19.988Z,1.30
2019-04-01T10:00:53.004Z,1.30
2019-04-01T10:03:19.945Z,1.40
2019-04-01T10:05:48.402Z,1.63
2019-04-01T10:08:16.941Z,1.67
2019-04-01T10:10:45.394Z,1.07
2019-04-01T10:13:13.919Z,1.50
2019-04-01T10:15:42.358Z,1.40
2019-04-01T10:18:10.786Z,1.60
2019-04-01T10:20:39.240Z,1.57
2019-04-01T10:23:07.689Z,1.60
2019-04-01T10:25:36.146Z,1.37
2019-04-01T10:28:04.599Z,1.80
2019-04-01T10:30:33.115Z,1.90
2019-04-01T10:33:02.374Z,1.40
2019-04-01T10:35:31.218Z,1.53
2019-04-01T10:37:59.748Z,1.77
2019-04-01T10:40:28.264Z,1.60
2019-04-01T10:42:56.768Z,1.80
2019-04-01T10:45:25.219Z,1.60
2019-04-01T10:47:53.667Z,1.40
2019-04-01T10:50:22.313Z,1.30
2019-04-01T10:52:50.809Z,1.40
2019-04-01T10:55:19.345Z,3.80
2019-04-01T10:57:47.857Z,1.63
2019-04-01T11:00:17.274Z,1.80
2019-04-01T11:02:45.780Z,1.73
2019-04-01T11:05:14.609Z,1.90
2019-04-01T11:07:43.114Z,1.70
2019-04-01T11:10:12.000Z,1.60
2019-04-01T11:12:40.596Z,1.90
2019-04-01T11:15:09.748Z,1.60
2019-04-01T11:17:38.191Z,1.60
2019-04-01T11:20:08.208Z,1.53
2019-04-01T11:22:37.013Z,1.67
2019-04-01T11:25:07.491Z,1.90
2019-04-01T11:27:36.303Z,2.13
2019-04-01T11:30:07.813Z,1.83
2019-04-01T11:32:36.732Z,2.00
2019-04-01T11:35:08.414Z,1.63
2019-04-01T11:37:36.879Z,2.20
2019-04-01T11:40:10.951Z,1.80
2019-04-01T11:42:40.470Z,1.80
2019-04-01T11:45:08.470Z,2.00
2019-04-01T11:47:37.340Z,1.83
2019-04-01T11:50:06.365Z,2.43
2019-04-01T11:52:34.816Z,1.90
2019-04-01T11:55:06.493Z,1.97
2019-04-01T11:57:33.934Z,1.70
2019-04-01T12:00:02.411Z,1.70
2019-04-01T12:02:30.905Z,1.50
2019-04-01T12:04:59.359Z,1.00
2019-04-01T12:07:27.811Z,1.27
2019-04-01T12:09:56.348Z,1.37
2019-04-01T12:12:24.790Z,1.50
2019-04-01T12:14:53.319Z,1.10
2019-04-01T12:17:21.746Z,1.30
2019-04-01T12:19:53.039Z,1.47
2019-04-01T12:22:20.362Z,1.20
2019-04-01T12:24:48.840Z,1.60
2019-04-01T12:27:17.274Z,1.33
2019-04-01T12:29:48.276Z,1.70
2019-04-01T12:32:15.962Z,1.60
2019-04-01T12:34:44.424Z,1.50
2019-04-01T12:37:12.864Z,1.60
2019-04-01T12:39:41.493Z,1.83
2019-04-01T12:42:10.039Z,1.63
2019-04-01T12:44:38.569Z,1.43
2019-04-01T12:47:06.998Z,1.60
2019-04-01T12:49:35.456Z,1.50
2019-04-01T12:52:03.992Z,1.53
2019-04-01T12:54:32.478Z,1.77
2019-04-01T12:57:00.927Z,1.57
2019-04-01T12:59:29.356Z,1.50
2019-04-01T13:01:57.841Z,1.70
2019-04-01T13:04:26.273Z,1.60
2019-04-01T13:06:54.746Z,1.30
2019-04-01T13:09:23.178Z,1.83
2019-04-01T13:11:51.658Z,1.63
2019-04-01T13:14:20.098Z,1.40
2019-04-01T13:16:48.555Z,1.33
2019-04-01T13:19:16.994Z,1.70
2019-04-01T13:21:45.456Z,1.30
2019-04-01T13:24:15.788Z,1.80
2019-04-01T13:26:44.236Z,1.40
2019-04-01T13:29:12.680Z,1.50
2019-04-01T13:31:41.133Z,1.40
2019-04-01T13:34:09.580Z,1.40
2019-04-01T13:36:38.033Z,1.40
2019-04-01T13:39:07.310Z,1.60
2019-04-01T13:41:42.382Z,1.50
2019-04-01T13:44:08.926Z,1.43
2019-04-01T13:46:36.095Z,1.57
2019-04-01T13:49:04.941Z,1.50
2019-04-01T13:51:33.442Z,1.30
2019-04-01T13:54:08.576Z,1.20
2019-04-01T13:56:32.079Z,1.57
2019-04-01T13:59:00.511Z,1.57
2019-04-01T14:01:28.967Z,1.33
2019-04-01T14:03:57.628Z,1.67
2019-04-01T14:06:26.866Z,1.40
2019-04-01T14:08:55.367Z,1.47
2019-04-01T14:11:23.883Z,0.97
2019-04-01T14:13:52.325Z,1.30
2019-04-01T14:16:20.797Z,1.17
2019-04-01T14:18:49.247Z,1.70
2019-04-01T14:21:20.767Z,1.43
2019-04-01T14:23:47.852Z,1.20
2019-04-01T14:26:16.316Z,1.30
2019-04-01T14:28:44.789Z,1.20
2019-04-01T14:31:13.327Z,1.40
2019-04-01T14:33:41.785Z,1.27
2019-04-01T14:36:10.238Z,1.13
2019-04-01T14:38:38.674Z,1.40
2019-04-01T14:41:07.128Z,1.30
2019-04-01T14:43:35.637Z,1.47
2019-04-01T14:46:04.098Z,1.40
2019-04-01T14:48:32.531Z,1.30
2019-04-01T14:51:00.986Z,1.37
2019-04-01T14:53:29.447Z,1.40
2019-04-01T14:55:59.040Z,1.40
2019-04-01T14:58:27.631Z,1.50
2019-04-01T15:00:56.151Z,1.50
2019-04-01T15:03:24.595Z,1.60
2019-04-01T15:05:53.049Z,1.50
2019-04-01T15:08:21.518Z,1.60
2019-04-01T15:10:50.044Z,1.20
2019-04-01T15:13:18.511Z,1.60
2019-04-01T15:15:46.953Z,1.33
2019-04-01T15:18:16.396Z,1.27
2019-04-01T15:20:45.094Z,1.70
2019-04-01T15:23:13.535Z,1.60
2019-04-01T15:25:42.049Z,1.40
2019-04-01T15:28:10.528Z,1.40
2019-04-01T15:30:39.023Z,1.80
2019-04-01T15:33:07.474Z,1.50
2019-04-01T15:35:35.931Z,1.70
2019-04-01T15:38:04.366Z,1.70
2019-04-01T15:40:33.406Z,1.43
2019-04-01T15:43:01.963Z,1.70
2019-04-01T15:45:31.393Z,1.87
2019-04-01T15:48:00.111Z,1.87
2019-04-01T15:50:29.207Z,1.67
2019-04-01T15:52:57.779Z,1.93
2019-04-01T15:55:26.233Z,2.00
2019-04-01T15:57:54.714Z,2.00
2019-04-01T16:00:23.221Z,2.60
2019-04-01T16:02:51.673Z,2.00
2019-04-01T16:05:20.107Z,1.90
2019-04-01T16:07:48.570Z,1.70
2019-04-01T16:10:17.017Z,2.07
2019-04-01T16:12:45.611Z,1.70
2019-04-01T16:15:14.166Z,1.37
2019-04-01T16:17:42.631Z,1.73
2019-04-01T16:20:11.193Z,1.90
2019-04-01T16:22:39.659Z,1.80
2019-04-01T16:25:08.247Z,1.97
2019-04-01T16:27:36.772Z,1.93
2019-04-01T16:30:07.366Z,1.90
2019-04-01T16:32:36.012Z,1.73
2019-04-01T16:35:06.600Z,1.83
2019-04-01T16:37:35.049Z,2.30
2019-04-01T16:40:06.032Z,2.17
2019-04-01T16:42:34.619Z,2.20
2019-04-01T16:45:04.661Z,2.30
2019-04-01T16:47:33.105Z,2.30
2019-04-01T16:50:01.553Z,2.20
2019-04-01T16:52:30.001Z,2.73
2019-04-01T16:55:00.559Z,2.40
2019-04-01T16:57:29.011Z,2.20
2019-04-01T16:59:57.486Z,2.23
2019-04-01T17:02:26.011Z,2.60
2019-04-01T17:04:54.483Z,2.47
2019-04-01T17:07:22.912Z,2.53
2019-04-01T17:09:51.373Z,2.00
2019-04-01T17:12:19.799Z,2.40
2019-04-01T17:14:48.263Z,2.37
2019-04-01T17:17:17.199Z,2.23
2019-04-01T17:19:45.710Z,2.07
2019-04-01T17:22:14.160Z,2.50
2019-04-01T17:24:45.924Z,2.07
2019-04-01T17:27:14.424Z,2.03
2019-04-01T17:29:45.748Z,2.20
2019-04-01T17:32:14.338Z,2.57
2019-04-01T17:34:42.864Z,2.33
2019-04-01T17:37:11.360Z,2.63
2019-04-01T17:39:39.819Z,2.03
2019-04-01T17:42:08.320Z,2.20
2019-04-01T17:44:36.770Z,2.60
2019-04-01T17:47:06.190Z,2.70
2019-04-01T17:49:34.802Z,2.20
2019-04-01T17:52:04.390Z,2.80
2019-04-01T17:54:33.045Z,2.47
2019-04-01T17:57:01.478Z,2.60
2019-04-01T17:59:29.949Z,2.50
2019-04-01T18:01:58.384Z,2.33
2019-04-01T18:04:26.904Z,2.17
2019-04-01T18:06:58.173Z,2.30
2019-04-01T18:09:25.540Z,2.33
2019-04-01T18:11:54.324Z,2.50
2019-04-01T18:14:23.658Z,2.53
2019-04-01T18:16:52.087Z,2.53
2019-04-01T18:19:20.955Z,2.43
2019-04-01T18:21:49.446Z,2.40
2019-04-01T18:24:17.897Z,2.33
2019-04-01T18:26:46.389Z,2.27
2019-04-01T18:29:14.877Z,2.33
2019-04-01T18:31:43.311Z,2.20
2019-04-01T18:34:11.804Z,2.43
2019-04-01T18:36:41.619Z,2.60
2019-04-01T18:39:10.192Z,2.43
2019-04-01T18:41:38.655Z,2.93
2019-04-01T18:44:07.148Z,3.07
2019-04-01T18:46:35.805Z,2.57
2019-04-01T18:49:04.241Z,2.77
2019-04-01T18:51:32.692Z,2.67
2019-04-01T18:54:01.124Z,2.43
2019-04-01T18:56:29.714Z,3.13
2019-04-01T18:58:58.310Z,2.60
2019-04-01T19:01:26.774Z,2.70
2019-04-01T19:03:55.198Z,3.00
2019-04-01T19:06:23.665Z,2.70
2019-04-01T19:08:52.104Z,2.30
2019-04-01T19:11:20.674Z,3.10
2019-04-01T19:13:49.116Z,2.13
2019-04-01T19:16:17.588Z,3.07
2019-04-01T19:18:46.074Z,2.43
2019-04-01T19:21:14.538Z,2.60
2019-04-01T19:23:43.038Z,2.40
2019-04-01T19:26:11.512Z,2.83
2019-04-01T19:28:39.969Z,2.80
2019-04-01T19:31:08.429Z,2.40
2019-04-01T19:33:38.144Z,2.40
2019-04-01T19:36:06.686Z,2.63
2019-04-01T19:38:35.126Z,2.57
2019-04-01T19:41:03.574Z,3.60
2019-04-01T19:43:32.098Z,2.90
2019-04-01T19:46:00.550Z,2.67
2019-04-01T19:48:28.998Z,2.50
2019-04-01T19:50:59.099Z,3.40
2019-04-01T19:53:27.758Z,2.40
2019-04-01T19:55:56.490Z,2.70
2019-04-01T19:58:25.512Z,2.20
2019-04-01T20:00:54.649Z,2.50
2019-04-01T20:03:23.131Z,2.20
2019-04-01T20:05:51.587Z,2.20
2019-04-01T20:08:20.040Z,2.30
2019-04-01T20:10:48.530Z,2.30
2019-04-01T20:13:17.002Z,2.30
2019-04-01T20:15:45.464Z,2.27
2019-04-01T20:18:13.911Z,2.40
2019-04-01T20:20:42.432Z,2.40
2019-04-01T20:23:10.887Z,2.23
2019-04-01T20:25:39.320Z,2.00
2019-04-01T20:28:07.774Z,2.37
2019-04-01T20:30:37.942Z,2.30
2019-04-01T20:33:16.905Z,1.97
2019-04-01T20:35:36.544Z,2.23
2019-04-01T20:38:05.047Z,2.00
2019-04-01T20:40:33.470Z,2.20
2019-04-01T20:43:01.926Z,2.50
2019-04-01T20:45:30.375Z,2.13
2019-04-01T20:47:58.891Z,2.30
2019-04-01T20:50:28.174Z,2.27
2019-04-01T20:52:56.956Z,2.23
2019-04-01T20:55:25.379Z,2.43
2019-04-01T20:57:53.915Z,2.10
2019-04-01T21:00:22.492Z,2.40
2019-04-01T21:02:50.961Z,2.20
2019-04-01T21:05:19.389Z,2.40
2019-04-01T21:07:47.943Z,2.43
2019-04-01T21:10:16.671Z,2.10
2019-04-01T21:12:45.125Z,2.43
2019-04-01T21:15:13.634Z,3.93
2019-04-01T21:17:42.086Z,3.30
2019-04-01T21:20:10.667Z,2.50
2019-04-01T21:22:39.118Z,2.73
2019-04-01T21:25:07.808Z,2.80
2019-04-01T21:27:36.258Z,2.57
2019-04-01T21:30:09.530Z,2.80
2019-04-01T21:32:37.981Z,3.00
2019-04-01T21:35:06.669Z,2.67
2019-04-01T21:37:35.287Z,2.83
2019-04-01T21:40:06.642Z,2.77
2019-04-01T21:42:35.104Z,2.50
2019-04-01T21:45:06.020Z,3.10
2019-04-01T21:47:34.486Z,3.17
2019-04-01T21:50:02.977Z,2.83
2019-04-01T21:52:31.426Z,2.67
2019-04-01T21:54:59.887Z,2.60
2019-04-01T21:57:28.339Z,2.70
2019-04-01T21:59:56.786Z,3.10
2019-04-01T22:02:35.495Z,2.73
2019-04-01T22:04:55.412Z,2.53
2019-04-01T22:07:23.870Z,2.80
2019-04-01T22:09:52.402Z,2.97
2019-04-01T22:12:20.829Z,2.60
2019-04-01T22:14:49.287Z,3.10
2019-04-01T22:17:17.717Z,3.13
2019-04-01T22:19:46.163Z,2.63
2019-04-01T22:22:14.597Z,3.27
2019-04-01T22:24:43.048Z,2.70
2019-04-01T22:27:11.485Z,2.70
2019-04-01T22:29:39.927Z,3.00
2019-04-01T22:32:08.379Z,3.17
2019-04-01T22:34:37.290Z,2.77
2019-04-01T22:37:08.109Z,2.70
2019-04-01T22:39:36.671Z,3.17
2019-04-01T22:42:05.105Z,2.73
2019-04-01T22:44:33.546Z,3.10
2019-04-01T22:47:01.998Z,3.00
2019-04-01T22:49:30.433Z,3.10
2019-04-01T22:51:58.890Z,2.90
2019-04-01T22:54:27.348Z,2.87
2019-04-01T22:56:55.987Z,3.03
2019-04-01T22:59:24.721Z,2.70
2019-04-01T23:01:53.205Z,2.80
2019-04-01T23:04:21.674Z,2.80
2019-04-01T23:06:50.105Z,3.27
2019-04-01T23:09:18.554Z,3.83
2019-04-01T23:11:46.986Z,4.87
2019-04-01T23:14:17.097Z,3.47
2019-04-01T23:16:45.649Z,2.77
2019-04-01T23:19:14.223Z,3.20
2019-04-01T23:21:42.664Z,2.57
2019-04-01T23:24:11.114Z,2.90
2019-04-01T23:26:39.538Z,3.10
2019-04-01T23:29:08.000Z,3.23
2019-04-01T23:31:38.416Z,3.20
2019-04-01T23:34:06.598Z,3.00
2019-04-01T23:36:35.027Z,2.70
2019-04-01T23:39:05.272Z,2.93
2019-04-01T23:41:34.214Z,2.93
2019-04-01T23:44:02.750Z,2.80
2019-04-01T23:46:31.189Z,3.10
2019-04-01T23:48:59.635Z,2.53
2019-04-01T23:51:28.075Z,2.93
2019-04-01T23:53:56.501Z,3.07
2019-04-01T23:56:24.957Z,2.97
2019-04-01T23:58:53.390Z,2.77
